Time;durP1;ratioP1;P1;durP2;ratioP2;P2;SDS_P1;SDS_P2;PMS_P1;PMS_P2;Temp;Humidity;BMP_temperature;BMP_pressure;BME280_temperature;BME280_humidity;BME280_pressure;Samples;Min_cycle;Max_cycle;Signal;HPM_P1;HPM_P2
2023/10/14 00:02:03;;;;;;;7.40;5.97;;;;;;;19.77;42.11;99683.72;5046743;28;20096;-76
2023/10/14 00:04:31;;;;;;;10.25;5.90;;;;;;;19.76;42.17;99659.81;5043709;28;20094;-76
2023/10/14 00:07:06;;;;;;;7.93;5.93;;;;;;;19.77;42.43;99683.72;5043819;28;20041;-76
2023/10/14 00:09:42;;;;;;;7.55;5.55;;;;;;;19.75;41.99;99681.19;5044287;28;20110;-76
2023/10/14 00:12:13;;;;;;;7.78;5.35;;;;;;;19.75;41.94;99688.66;5045777;28;20420;-74
2023/10/14 00:14:44;;;;;;;7.53;5.60;;;;;;;19.76;41.98;99680.09;5042784;28;20052;-74
2023/10/14 00:17:16;;;;;;;8.20;5.72;;;;;;;19.74;42.00;99690.56;5046138;28;20055;-76
2023/10/14 00:19:49;;;;;;;9.48;5.93;;;;;;;19.73;41.84;99693.56;5045004;28;20131;-74
2023/10/14 00:22:19;;;;;;;9.18;6.25;;;;;;;19.74;41.89;99706.38;5046784;28;20080;-76
2023/10/14 00:24:48;;;;;;;8.30;6.43;;;;;;;19.73;41.94;99702.75;5045605;28;20036;-74
2023/10/14 00:27:17;;;;;;;10.40;6.03;;;;;;;19.73;42.46;99710.22;5044586;28;20048;-76
2023/10/14 00:29:47;;;;;;;9.10;6.05;;;;;;;19.74;42.53;99714.72;5045169;28;20069;-76
2023/10/14 00:32:16;;;;;;;9.20;5.93;;;;;;;19.69;42.62;99708.97;5046148;28;20432;-76
2023/10/14 00:34:44;;;;;;;9.40;6.43;;;;;;;19.68;42.58;99713.69;5045058;28;20293;-75
2023/10/14 00:37:13;;;;;;;9.27;6.90;;;;;;;19.69;42.82;99717.31;5044351;28;20066;-75
2023/10/14 00:39:42;;;;;;;9.57;6.45;;;;;;;19.65;42.68;99716.88;5045687;28;20179;-76
2023/10/14 00:42:10;;;;;;;8.70;6.53;;;;;;;19.64;43.00;99723.50;5045442;28;20520;-76
2023/10/14 00:44:39;;;;;;;9.02;5.97;;;;;;;19.60;42.98;99731.44;5044141;28;20053;-75
2023/10/14 00:47:15;;;;;;;8.45;6.18;;;;;;;19.59;43.22;99724.19;5045342;28;20123;-75
2023/10/14 00:49:43;;;;;;;7.70;6.07;;;;;;;19.54;43.71;99728.69;5044397;28;20419;-75
2023/10/14 00:52:18;;;;;;;7.28;5.57;;;;;;;19.53;43.62;99725.06;5045907;28;20118;-75
2023/10/14 00:54:58;;;;;;;8.77;6.13;;;;;;;19.50;43.96;99725.50;5045184;28;20578;-75
2023/10/14 00:57:37;;;;;;;8.68;6.05;;;;;;;19.45;43.66;99736.41;5042370;28;20064;-75
2023/10/14 01:00:09;;;;;;;8.98;5.88;;;;;;;19.44;43.81;99731.94;5044545;28;20081;-75
2023/10/14 01:02:39;;;;;;;8.85;6.38;;;;;;;19.41;44.08;99732.38;5045129;28;20055;-76
2023/10/14 01:05:13;;;;;;;10.35;6.13;;;;;;;19.37;44.00;99727.50;5044665;28;20156;-75
2023/10/14 01:07:41;;;;;;;8.82;5.80;;;;;;;19.32;43.75;99730.91;5042079;28;20896;-76
2023/10/14 01:10:12;;;;;;;8.82;5.82;;;;;;;19.31;44.06;99728.34;5041073;28;20045;-75
2023/10/14 01:12:44;;;;;;;8.57;6.10;;;;;;;19.29;44.10;99731.34;5043791;28;20103;-75
2023/10/14 01:15:20;;;;;;;;;;;;;;;18.99;44.78;99730.97;5043845;28;20052;-75
2023/10/14 01:17:53;;;;;;;8.40;5.35;;;;;;;19.23;44.00;99723.88;5059936;28;19950;-75
2023/10/14 01:23:12;;;;;;;9.27;5.45;;;;;;;19.22;44.14;99730.50;5043084;28;20679;-75
2023/10/14 01:25:46;;;;;;;9.07;5.55;;;;;;;19.19;44.25;99731.78;5042134;28;20056;-75
2023/10/14 01:28:21;;;;;;;7.53;5.35;;;;;;;19.21;44.49;99726.06;5043394;28;20582;-75
2023/10/14 01:31:11;;;;;;;6.38;4.63;;;;;;;19.21;44.31;99728.81;5042071;28;20132;-75
2023/10/14 01:33:39;;;;;;;8.13;4.50;;;;;;;19.14;44.05;99725.16;5044024;28;20064;-75
2023/10/14 01:36:08;;;;;;;6.47;4.55;;;;;;;19.12;44.06;99744.81;5042059;28;20130;-75
2023/10/14 01:38:39;;;;;;;7.40;4.60;;;;;;;19.13;44.05;99749.28;5042637;28;20182;-75
2023/10/14 01:41:08;;;;;;;8.13;4.50;;;;;;;19.07;44.93;99774.25;5044171;28;20765;-75
2023/10/14 01:43:36;;;;;;;9.15;5.13;;;;;;;19.05;45.44;99795.81;5047037;28;20053;-74
2023/10/14 01:46:09;;;;;;;6.18;4.55;;;;;;;19.01;45.65;99794.53;5049533;28;20041;-75
2023/10/14 01:48:39;;;;;;;6.60;4.25;;;;;;;18.98;45.89;99792.19;5051910;28;20986;-75
2023/10/14 01:51:07;;;;;;;6.20;3.33;;;;;;;18.95;45.84;99795.41;5052640;28;20041;-75
2023/10/14 01:53:37;;;;;;;7.18;3.40;;;;;;;18.89;45.87;99813.72;5056832;28;20544;-75
2023/10/14 01:56:07;;;;;;;3.75;2.25;;;;;;;18.85;45.68;99812.47;5056046;28;20096;-75
2023/10/14 01:58:36;;;;;;;2.50;1.35;;;;;;;18.77;45.89;99821.84;5054506;28;20186;-75
2023/10/14 02:01:14;;;;;;;2.65;1.17;;;;;;;18.74;45.38;99826.94;5056014;28;20040;-75
2023/10/14 02:03:46;;;;;;;2.08;0.90;;;;;;;18.64;45.28;99841.22;5057523;28;20044;-75
2023/10/14 02:06:20;;;;;;;1.02;0.50;;;;;;;18.54;45.71;99862.97;5058950;28;20134;-75
2023/10/14 02:08:51;;;;;;;1.00;0.35;;;;;;;18.47;45.61;99873.16;5055559;28;20048;-75
2023/10/14 02:11:21;;;;;;;0.50;0.40;;;;;;;18.39;45.78;99876.94;5059757;28;20515;-75
2023/10/14 02:13:50;;;;;;;1.17;0.50;;;;;;;18.29;45.75;99884.81;5057179;28;20173;-75
2023/10/14 02:16:24;;;;;;;0.52;0.32;;;;;;;18.22;45.92;99883.97;5059860;28;20087;-75
2023/10/14 02:19:00;;;;;;;1.08;0.40;;;;;;;18.14;45.47;99896.03;5056278;28;20041;-75
2023/10/14 02:21:35;;;;;;;0.88;0.40;;;;;;;18.06;46.39;99904.53;5056850;28;20037;-75
2023/10/14 02:24:09;;;;;;;1.02;0.30;;;;;;;17.99;45.98;99917.50;5056950;28;20045;-75
2023/10/14 02:26:39;;;;;;;0.95;0.43;;;;;;;17.95;45.70;99920.88;5055029;28;20052;-75
2023/10/14 02:29:09;;;;;;;0.77;0.32;;;;;;;17.87;45.80;99921.91;5057091;28;20095;-75
2023/10/14 02:31:37;;;;;;;1.45;0.45;;;;;;;17.81;46.38;99927.41;5056081;28;20059;-75
2023/10/14 02:34:06;;;;;;;0.45;0.30;;;;;;;17.74;46.23;99938.44;5055445;28;20534;-75
2023/10/14 02:36:42;;;;;;;0.90;0.57;;;;;;;17.68;46.03;99948.38;5056231;28;20387;-75
2023/10/14 02:39:14;;;;;;;0.30;0.22;;;;;;;17.61;46.45;99955.78;5055408;28;20044;-75
2023/10/14 02:41:58;;;;;;;0.70;0.38;;;;;;;17.57;46.28;99960.00;5059523;28;20044;-75
2023/10/14 02:44:30;;;;;;;0.70;0.20;;;;;;;17.48;45.88;99966.75;5060213;28;20480;-74
2023/10/14 02:47:03;;;;;;;0.68;0.30;;;;;;;17.44;46.61;99975.66;5058312;28;20447;-75
2023/10/14 02:49:36;;;;;;;0.45;0.20;;;;;;;17.36;46.61;99971.97;5058805;28;20067;-74
2023/10/14 02:52:10;;;;;;;1.55;0.40;;;;;;;17.32;46.98;99990.00;5056939;28;20041;-74
2023/10/14 02:54:42;;;;;;;0.93;0.32;;;;;;;17.29;47.33;99987.66;5056246;28;20045;-75
2023/10/14 02:57:23;;;;;;;0.22;0.20;;;;;;;17.24;47.38;99997.59;5054399;28;20132;-74
2023/10/14 02:59:55;;;;;;;0.98;0.22;;;;;;;17.20;47.33;100012.88;5056528;28;20044;-75
2023/10/14 03:02:26;;;;;;;;;;;;;;;16.89;47.90;100015.94;5051330;28;20136;-75
2023/10/14 03:05:09;;;;;;;0.63;0.28;;;;;;;17.09;47.11;100021.69;5069724;28;20295;-74
2023/10/14 03:07:50;;;;;;;0.52;0.30;;;;;;;17.07;47.11;100032.97;5055050;28;20079;-74
2023/10/14 03:10:28;;;;;;;0.70;0.47;;;;;;;17.04;47.57;100041.66;5055682;28;20369;-74
2023/10/14 03:12:58;;;;;;;1.35;0.35;;;;;;;17.02;47.31;100057.56;5059892;28;20419;-75
2023/10/14 03:15:33;;;;;;;0.50;0.40;;;;;;;16.98;47.15;100067.31;5055879;28;20048;-74
2023/10/14 03:18:01;;;;;;;1.00;0.35;;;;;;;16.94;47.43;100060.41;5057742;28;20131;-75
2023/10/14 03:20:39;;;;;;;0.47;0.38;;;;;;;16.92;47.21;100074.44;5053651;28;20163;-74
2023/10/14 03:23:17;;;;;;;0.50;0.40;;;;;;;16.88;47.40;100091.59;5053780;28;20061;-75
2023/10/14 03:25:47;;;;;;;0.77;0.40;;;;;;;16.84;47.59;100099.41;5056478;28;20044;-74
2023/10/14 03:28:19;;;;;;;0.65;0.38;;;;;;;16.83;47.44;100116.19;5053428;28;20385;-74
2023/10/14 03:30:55;;;;;;;1.50;0.52;;;;;;;16.78;47.08;100135.25;5054936;28;20440;-73
2023/10/14 03:33:27;;;;;;;1.35;0.60;;;;;;;16.73;46.99;100135.84;5054975;28;20070;-73
2023/10/14 03:36:03;;;;;;;1.83;0.80;;;;;;;16.68;46.71;100156.78;5053342;28;20396;-73
2023/10/14 03:38:39;;;;;;;1.95;0.70;;;;;;;16.63;46.36;100162.91;5055037;28;20119;-73
2023/10/14 03:41:17;;;;;;;2.05;0.68;;;;;;;16.59;45.98;100186.41;5054764;28;20131;-73
2023/10/14 03:43:54;;;;;;;3.13;0.90;;;;;;;16.53;45.96;100192.72;5053787;28;20518;-73
2023/10/14 03:46:30;;;;;;;2.92;0.77;;;;;;;16.45;46.02;100195.56;5054118;28;20423;-73
2023/10/14 03:48:58;;;;;;;2.70;0.95;;;;;;;16.38;46.25;100220.31;5052226;28;20048;-73
2023/10/14 03:51:27;;;;;;;4.72;0.95;;;;;;;16.32;46.09;100225.75;5054058;28;20572;-73
2023/10/14 03:53:56;;;;;;;2.40;0.93;;;;;;;16.27;45.82;100227.16;5051985;28;20058;-73
2023/10/14 03:56:27;;;;;;;3.40;1.00;;;;;;;16.23;46.00;100244.28;5052071;28;20056;-73
2023/10/14 03:58:59;;;;;;;5.22;1.20;;;;;;;16.20;45.87;100255.69;5051991;28;20045;-74
2023/10/14 04:01:30;;;;;;;4.93;1.00;;;;;;;16.14;45.91;100256.41;5050845;28;20334;-73
2023/10/14 04:04:01;;;;;;;4.47;1.00;;;;;;;16.10;45.80;100258.66;5051609;28;20044;-73
2023/10/14 04:06:35;;;;;;;3.42;0.98;;;;;;;16.11;46.61;100278.84;5051055;28;20542;-73
2023/10/14 04:09:10;;;;;;;3.83;1.10;;;;;;;16.05;46.27;100285.97;5051758;28;20045;-73
2023/10/14 04:11:39;;;;;;;2.50;1.05;;;;;;;16.04;46.98;100298.06;5050218;28;20053;-73
2023/10/14 04:14:13;;;;;;;3.75;1.08;;;;;;;16.05;46.72;100296.16;5051402;28;20059;-73
2023/10/14 04:16:57;;;;;;;4.35;1.30;;;;;;;16.02;46.99;100294.63;5050644;28;20049;-73
2023/10/14 04:19:27;;;;;;;4.38;1.30;;;;;;;16.00;46.63;100306.91;5046489;28;20151;-73
2023/10/14 04:22:00;;;;;;;3.47;1.20;;;;;;;16.00;46.24;100304.97;5050431;28;20049;-73
2023/10/14 04:24:45;;;;;;;4.53;1.50;;;;;;;16.00;45.87;100315.19;5047956;28;20080;-73
2023/10/14 04:27:29;;;;;;;5.15;1.10;;;;;;;15.96;46.16;100317.44;5049792;28;20156;-73
2023/10/14 04:30:10;;;;;;;4.78;1.30;;;;;;;15.97;46.35;100324.69;5049110;28;20136;-73
2023/10/14 04:32:47;;;;;;;4.50;1.10;;;;;;;15.94;46.30;100316.75;5049296;28;20043;-73
2023/10/14 04:35:19;;;;;;;2.28;0.93;;;;;;;15.93;46.54;100330.72;5051267;28;20048;-73
2023/10/14 04:37:52;;;;;;;2.78;1.00;;;;;;;15.89;46.42;100333.00;5050685;28;20532;-73
2023/10/14 04:40:35;;;;;;;4.30;1.05;;;;;;;15.90;46.36;100343.00;5048828;28;20316;-73
2023/10/14 04:43:12;;;;;;;2.85;1.10;;;;;;;15.88;45.70;100354.22;5050121;28;20049;-73
2023/10/14 04:45:45;;;;;;;3.78;1.25;;;;;;;15.88;45.80;100353.34;5047526;28;20062;-73
2023/10/14 04:48:15;;;;;;;4.00;1.35;;;;;;;15.85;45.61;100365.59;5045931;28;20130;-74
2023/10/14 04:50:44;;;;;;;4.03;1.45;;;;;;;15.83;45.56;100380.66;5046158;28;20041;-74
2023/10/14 04:53:13;;;;;;;6.05;1.40;;;;;;;15.81;45.97;100386.34;5049644;28;20486;-74
2023/10/14 04:55:44;;;;;;;2.72;1.30;;;;;;;15.79;46.18;100399.44;5044697;28;20045;-74
2023/10/14 04:58:23;;;;;;;5.30;1.42;;;;;;;15.78;45.63;100405.13;5046329;28;20055;-74
2023/10/14 05:00:57;;;;;;;3.72;1.40;;;;;;;15.77;45.94;100417.22;5047250;28;20076;-73
2023/10/14 05:03:25;;;;;;;5.03;1.15;;;;;;;15.73;46.34;100415.88;5047712;28;20450;-73
2023/10/14 05:05:55;;;;;;;3.38;1.27;;;;;;;15.71;46.01;100420.69;5048368;28;20069;-74
2023/10/14 05:08:27;;;;;;;4.50;1.20;;;;;;;15.70;45.96;100418.97;5047599;28;20063;-74
2023/10/14 05:10:56;;;;;;;4.70;1.35;;;;;;;15.67;45.88;100425.69;5046667;28;20048;-73
2023/10/14 05:13:31;;;;;;;4.32;1.42;;;;;;;15.65;45.54;100437.97;5046055;28;20041;-73
2023/10/14 05:16:15;;;;;;;4.43;1.10;;;;;;;15.65;45.30;100443.47;5046558;28;20049;-73
2023/10/14 05:19:00;;;;;;;4.15;1.65;;;;;;;15.60;45.85;100445.91;5046857;28;20098;-73
2023/10/14 05:21:42;;;;;;;3.85;1.15;;;;;;;15.59;45.65;100452.47;5044786;28;20132;-74
2023/10/14 05:24:13;;;;;;;4.45;1.48;;;;;;;15.56;45.98;100458.34;5047554;28;20211;-73
2023/10/14 05:26:46;;;;;;;4.13;1.27;;;;;;;15.57;45.75;100468.34;5046263;28;20140;-73
2023/10/14 05:29:17;;;;;;;4.18;1.20;;;;;;;15.54;45.63;100469.53;5047979;28;20041;-73
2023/10/14 05:31:48;;;;;;;3.17;1.35;;;;;;;15.53;46.08;100481.59;5046990;28;20044;-73
2023/10/14 05:34:21;;;;;;;4.72;1.35;;;;;;;15.52;45.58;100477.97;5047564;28;20045;-73
2023/10/14 05:36:52;;;;;;;4.43;1.38;;;;;;;15.50;45.69;100479.22;5048468;28;20041;-73
2023/10/14 05:39:20;;;;;;;6.15;1.52;;;;;;;15.48;45.65;100484.91;5050097;28;20134;-73
2023/10/14 05:41:49;;;;;;;5.03;1.20;;;;;;;15.47;45.29;100490.59;5049728;28;20043;-73
2023/10/14 05:44:17;;;;;;;4.38;1.23;;;;;;;15.45;45.19;100500.94;5051044;28;20052;-73
2023/10/14 05:46:44;;;;;;;3.78;1.08;;;;;;;15.43;45.30;100508.50;5047002;28;20384;-73
2023/10/14 05:49:16;;;;;;;5.60;1.45;;;;;;;15.42;45.29;100510.41;5048294;28;20130;-74
2023/10/14 05:51:44;;;;;;;6.28;1.63;;;;;;;15.38;45.55;100517.31;5048437;28;20090;-73
2023/10/14 05:54:12;;;;;;;6.57;1.50;;;;;;;15.37;45.08;100523.00;5049587;28;20055;-73
2023/10/14 05:56:42;;;;;;;5.13;1.10;;;;;;;15.35;45.38;100522.31;5045370;28;20045;-73
2023/10/14 05:59:11;;;;;;;3.88;1.23;;;;;;;15.33;45.60;100532.63;5046529;28;20049;-73
2023/10/14 06:01:45;;;;;;;3.85;1.20;;;;;;;15.32;45.06;100533.66;5048258;28;20049;-73
2023/10/14 06:04:16;;;;;;;5.57;1.50;;;;;;;15.30;44.98;100542.09;5049919;28;20546;-73
2023/10/14 06:06:44;;;;;;;3.67;1.13;;;;;;;15.28;45.61;100549.69;5046932;28;20136;-73
2023/10/14 06:09:16;;;;;;;3.75;1.00;;;;;;;15.27;45.66;100563.63;5048724;28;20122;-73
2023/10/14 06:11:45;;;;;;;4.95;1.15;;;;;;;15.22;45.07;100563.28;5048762;28;20045;-73
2023/10/14 06:14:13;;;;;;;5.32;1.30;;;;;;;15.22;45.30;100560.53;5048030;28;20594;-73
2023/10/14 06:16:41;;;;;;;4.93;1.17;;;;;;;15.20;45.23;100574.50;5048492;28;20052;-73
2023/10/14 06:19:12;;;;;;;4.60;1.40;;;;;;;15.18;44.65;100581.22;5044973;28;20060;-74
2023/10/14 06:21:44;;;;;;;3.35;1.17;;;;;;;15.18;45.33;100578.47;5047778;28;20052;-73
2023/10/14 06:24:12;;;;;;;3.80;1.00;;;;;;;15.13;45.21;100584.47;5045484;28;20048;-74
2023/10/14 06:26:40;;;;;;;4.47;1.30;;;;;;;15.12;45.20;100594.63;5047981;28;20499;-72
2023/10/14 06:29:09;;;;;;;4.15;1.25;;;;;;;15.10;45.48;100593.94;5046486;28;21285;-74
2023/10/14 06:31:38;;;;;;;4.82;1.13;;;;;;;15.10;45.15;100591.19;5035984;28;20164;-74
2023/10/14 06:34:09;;;;;;;4.70;1.40;;;;;;;15.11;45.39;100603.06;5046763;28;20474;-65
2023/10/14 06:36:37;;;;;;;4.50;1.20;;;;;;;15.14;45.73;100603.59;5038255;28;20076;-68
2023/10/14 06:39:14;;;;;;;4.25;1.90;;;;;;;15.20;45.69;100617.72;5047644;28;20144;-73
2023/10/14 06:41:44;;;;;;;4.18;1.42;;;;;;;15.23;45.55;100620.16;5045920;28;20146;-73
2023/10/14 06:44:15;;;;;;;7.30;1.55;;;;;;;15.28;45.87;100632.38;5045513;28;20044;-73
2023/10/14 06:46:44;;;;;;;4.72;1.70;;;;;;;15.36;46.12;100628.81;5043735;28;20053;-74
2023/10/14 06:49:14;;;;;;;5.47;1.35;;;;;;;15.43;45.40;100632.59;5044765;28;20516;-74
2023/10/14 06:51:43;;;;;;;5.10;1.40;;;;;;;15.51;45.17;100636.22;5043190;28;20060;-74
2023/10/14 06:54:14;;;;;;;5.32;1.60;;;;;;;15.60;45.58;100648.13;5047089;28;20060;-73
2023/10/14 06:56:44;;;;;;;4.40;1.30;;;;;;;15.65;45.29;100647.63;5040957;28;20512;-74
2023/10/14 06:59:13;;;;;;;4.38;1.40;;;;;;;15.69;45.00;100655.38;5045702;28;21412;-74
2023/10/14 07:01:43;;;;;;;4.05;1.23;;;;;;;15.74;44.80;100657.63;5041720;28;20385;-74
2023/10/14 07:04:12;;;;;;;3.65;1.35;;;;;;;15.77;44.59;100658.13;5046771;28;20509;-73
2023/10/14 07:06:42;;;;;;;5.65;1.20;;;;;;;15.78;44.21;100662.63;5043024;28;20037;-73
2023/10/14 07:09:17;;;;;;;4.15;1.50;;;;;;;15.79;44.39;100666.25;5046234;28;20109;-74
2023/10/14 07:11:47;;;;;;;3.75;1.27;;;;;;;15.81;44.36;100678.84;5045237;28;20052;-73
2023/10/14 07:14:18;;;;;;;3.97;1.13;;;;;;;15.78;43.86;100683.81;5046436;28;20056;-74
2023/10/14 07:16:46;;;;;;;5.80;1.27;;;;;;;15.74;44.07;100680.56;5041257;28;20164;-74
2023/10/14 07:19:14;;;;;;;5.53;1.25;;;;;;;15.71;43.91;100685.56;5043420;28;20101;-73
2023/10/14 07:21:42;;;;;;;6.43;1.60;;;;;;;15.68;44.19;100688.66;5043430;28;20536;-74
2023/10/14 07:24:14;;;;;;;3.92;1.23;;;;;;;15.64;43.69;100693.66;5045686;28;20052;-74
2023/10/14 07:26:43;;;;;;;4.50;1.95;;;;;;;15.60;44.40;100699.66;5042533;28;20512;-74
2023/10/14 07:29:12;;;;;;;5.20;1.42;;;;;;;15.61;44.00;100693.13;5045434;28;20075;-73
2023/10/14 07:31:41;;;;;;;3.70;1.40;;;;;;;15.56;44.08;100703.81;5042328;28;20053;-74
2023/10/14 07:34:10;;;;;;;5.18;1.42;;;;;;;15.54;43.94;100705.88;5044968;28;20052;-73
2023/10/14 07:36:38;;;;;;;5.03;1.40;;;;;;;15.53;43.89;100710.53;5042696;28;20059;-73
2023/10/14 07:39:27;;;;;;;3.20;1.15;;;;;;;15.51;44.37;100712.59;5045031;28;20173;-73
2023/10/14 07:41:56;;;;;;;6.60;1.50;;;;;;;15.48;44.13;100718.47;5044044;28;20064;-73
2023/10/14 07:44:25;;;;;;;4.72;1.15;;;;;;;15.51;44.18;100729.13;5045899;28;20067;-73
2023/10/14 07:46:54;;;;;;;5.28;1.70;;;;;;;15.48;43.60;100724.84;5041737;28;20064;-74
2023/10/14 07:49:22;;;;;;;4.45;1.25;;;;;;;15.47;43.42;100730.53;5044192;28;20052;-73
2023/10/14 07:51:52;;;;;;;4.35;1.38;;;;;;;15.46;43.50;100724.16;5043212;28;20540;-73
2023/10/14 07:54:21;;;;;;;5.05;1.40;;;;;;;15.42;43.59;100733.78;5045922;28;20056;-73
2023/10/14 07:56:49;;;;;;;3.97;1.00;;;;;;;15.41;43.25;100733.97;5042716;28;20060;-73
2023/10/14 07:59:19;;;;;;;3.65;1.23;;;;;;;15.39;43.40;100736.91;5044861;28;20049;-73
2023/10/14 08:01:48;;;;;;;3.63;1.10;;;;;;;15.40;43.61;100746.03;5045118;28;20114;-74
2023/10/14 08:04:18;;;;;;;4.13;1.23;;;;;;;15.36;43.17;100752.91;5043123;28;20784;-74
2023/10/14 08:06:46;;;;;;;3.67;1.35;;;;;;;15.35;43.88;100752.03;5044398;28;20080;-73
2023/10/14 08:09:23;;;;;;;3.30;1.23;;;;;;;15.36;43.69;100755.66;5045739;28;20076;-74
2023/10/14 08:11:53;;;;;;;3.90;1.40;;;;;;;15.36;44.26;100764.78;5044260;28;20063;-74
2023/10/14 08:14:21;;;;;;;4.25;1.67;;;;;;;15.37;44.13;100771.16;5045593;28;20125;-74
2023/10/14 08:16:50;;;;;;;5.45;1.60;;;;;;;15.40;43.55;100773.59;5045859;28;20411;-73
2023/10/14 08:19:21;;;;;;;5.00;1.48;;;;;;;15.39;43.99;100774.63;5043641;28;20071;-74
2023/10/14 08:21:51;;;;;;;5.00;1.50;;;;;;;15.38;43.84;100783.94;5042806;28;20098;-74
2023/10/14 08:24:20;;;;;;;3.88;1.10;;;;;;;15.42;43.60;100768.78;5045827;28;20080;-74
2023/10/14 08:26:49;;;;;;;4.70;1.38;;;;;;;15.43;43.02;100781.53;5044643;28;20495;-74
2023/10/14 08:29:20;;;;;;;4.32;1.38;;;;;;;15.45;42.93;100788.59;5045421;28;20152;-74
2023/10/14 08:31:53;;;;;;;4.68;1.67;;;;;;;15.48;42.74;100785.53;5044887;28;20041;-74
2023/10/14 08:34:23;;;;;;;4.15;1.30;;;;;;;15.49;43.36;100791.91;5043775;28;20153;-74
2023/10/14 08:36:52;;;;;;;6.28;1.30;;;;;;;15.52;42.77;100805.34;5042767;28;20071;-74
2023/10/14 08:39:23;;;;;;;8.05;1.40;;;;;;;15.54;42.99;100807.94;5043531;28;20060;-74
2023/10/14 08:41:56;;;;;;;4.68;1.40;;;;;;;15.54;42.81;100811.56;5043417;28;20041;-74
2023/10/14 08:44:28;;;;;;;4.77;1.30;;;;;;;15.58;42.22;100810.22;5044329;28;20528;-74
2023/10/14 08:46:59;;;;;;;4.80;1.20;;;;;;;15.60;42.56;100824.69;5044905;28;20512;-74
2023/10/14 08:49:29;;;;;;;2.97;1.30;;;;;;;15.62;42.35;100811.59;5043633;28;20057;-74
2023/10/14 08:52:01;;;;;;;4.82;1.15;;;;;;;15.67;42.44;100824.91;5044194;28;20044;-74
2023/10/14 08:54:31;;;;;;;7.60;1.65;;;;;;;15.69;42.34;100820.03;5043677;28;20221;-74
2023/10/14 08:56:59;;;;;;;4.70;1.27;;;;;;;15.70;42.88;100825.41;5042246;28;20428;-74
2023/10/14 08:59:27;;;;;;;6.07;1.60;;;;;;;15.73;42.33;100825.06;5043868;28;20370;-74
2023/10/14 09:06:46;;;;;;;3.50;1.23;;;;;;;15.75;41.78;100836.81;5047276;28;20055;-86
2023/10/14 09:17:41;;;;;;;5.88;1.40;;;;;;;15.84;41.27;100855.09;5050820;28;20065;-85
2023/10/14 09:21:00;;;;;;;6.15;1.60;;;;;;;15.84;40.59;100856.97;5053108;28;20057;-85
2023/10/14 09:27:30;;;;;;;8.00;1.70;;;;;;;15.87;40.08;100876.84;5035904;28;20110;-82
2023/10/14 09:34:01;;;;;;;3.38;1.48;;;;;;;15.85;41.42;100881.66;5033903;28;20099;-83
2023/10/14 09:47:47;;;;;;;6.30;1.88;;;;;;;15.79;39.77;100867.69;4932169;28;20098;-85
2023/10/14 09:53:29;;;;;;;4.32;1.10;;;;;;;15.87;39.49;100873.22;5021252;28;20052;-87
2023/10/14 10:04:19;;;;;;;4.57;1.38;;;;;;;15.98;39.53;100883.94;5021384;28;20492;-84
2023/10/14 10:07:42;;;;;;;3.92;1.30;;;;;;;16.02;39.19;100882.56;5044844;28;20136;-84
2023/10/14 10:10:22;;;;;;;3.75;1.30;;;;;;;16.10;39.76;100879.81;5023261;28;20049;-83
2023/10/14 10:21:43;;;;;;;4.40;1.10;;;;;;;16.26;38.89;100903.88;4940910;28;20520;-84
2023/10/14 10:29:06;;;;;;;3.85;1.13;;;;;;;16.32;37.99;100911.50;4957540;28;20216;-84
2023/10/14 10:44:47;;;;;;;3.85;1.15;;;;;;;16.19;38.33;100927.66;4944578;28;20057;-84
2023/10/14 10:47:32;;;;;;;4.38;1.10;;;;;;;16.19;38.77;100925.78;5036622;28;20064;-86
2023/10/14 10:58:42;;;;;;;4.25;1.17;;;;;;;16.22;38.15;100919.94;5057309;28;20052;-85
2023/10/14 11:01:22;;;;;;;4.65;1.30;;;;;;;16.30;37.45;100915.44;5051215;28;20053;-84
2023/10/14 11:04:25;;;;;;;3.78;1.20;;;;;;;16.33;37.31;100931.69;5050392;28;20049;-85
2023/10/14 11:07:11;;;;;;;4.72;1.00;;;;;;;16.35;38.27;100922.19;5027124;28;20060;-82
2023/10/14 11:13:19;;;;;;;3.90;1.15;;;;;;;16.45;38.29;100913.72;5028153;28;20058;-82
2023/10/14 11:28:44;;;;;;;3.40;1.02;;;;;;;16.56;36.29;100927.22;4986414;28;20152;-83
2023/10/14 11:39:12;;;;;;;6.00;1.30;;;;;;;16.59;36.56;100913.03;5054178;28;20773;-85
2023/10/14 11:41:43;;;;;;;6.03;1.45;;;;;;;16.64;36.75;100928.09;5041889;28;20044;-86
2023/10/14 11:44:11;;;;;;;5.47;1.70;;;;;;;16.67;37.00;100924.09;5034891;28;20072;-85
2023/10/14 11:46:41;;;;;;;3.65;1.13;;;;;;;16.72;36.39;100927.22;5032481;28;20069;-85
2023/10/14 11:49:11;;;;;;;3.47;1.13;;;;;;;16.78;36.23;100933.94;5050881;28;20052;-85
2023/10/14 11:51:41;;;;;;;5.03;1.30;;;;;;;16.82;35.84;100927.06;5037098;28;20044;-84
2023/10/14 11:54:11;;;;;;;2.40;0.90;;;;;;;16.86;36.30;100926.53;5052438;28;20048;-85
2023/10/14 12:01:23;;;;;;;3.13;1.10;;;;;;;16.98;35.00;100927.06;5010275;28;20052;-86
2023/10/14 12:08:22;;;;;;;3.75;1.17;;;;;;;17.13;35.98;100943.81;5052829;28;20480;-84
2023/10/14 12:11:19;;;;;;;3.92;0.90;;;;;;;17.24;35.02;100935.13;5038347;28;20384;-85
2023/10/14 12:14:12;;;;;;;3.53;1.00;;;;;;;17.28;34.92;100942.91;5043786;28;20397;-85
2023/10/14 12:17:18;;;;;;;4.22;1.30;;;;;;;17.33;33.81;100939.59;5014389;28;20056;-85
2023/10/14 12:21:03;;;;;;;3.72;1.23;;;;;;;17.37;33.97;100930.78;4929347;28;20575;-85
2023/10/14 12:39:42;;;;;;;2.88;0.82;;;;;;;17.49;34.20;100942.31;5060791;28;20044;-85
2023/10/14 12:42:16;;;;;;;4.13;1.15;;;;;;;17.53;33.83;100951.16;5054368;28;20103;-86
2023/10/14 12:44:49;;;;;;;3.00;1.13;;;;;;;17.59;33.50;100944.88;5044521;28;20049;-86
2023/10/14 12:47:23;;;;;;;4.13;1.40;;;;;;;17.61;33.62;100948.34;5054826;28;20047;-85
2023/10/14 12:49:51;;;;;;;3.08;1.30;;;;;;;17.64;33.21;100942.47;5050494;28;20585;-86
2023/10/14 12:52:23;;;;;;;3.38;1.20;;;;;;;17.67;33.36;100944.88;5034840;28;20387;-83
2023/10/14 12:54:53;;;;;;;3.25;1.00;;;;;;;17.67;33.38;100947.63;5047864;28;20083;-83
2023/10/14 12:57:21;;;;;;;4.00;1.20;;;;;;;17.70;32.82;100953.69;5065289;28;20124;-83
2023/10/14 12:59:51;;;;;;;3.90;1.10;;;;;;;17.72;32.78;100962.69;5065821;28;20045;-86
2023/10/14 13:02:20;;;;;;;3.42;1.38;;;;;;;17.75;32.78;100964.25;5048569;28;20040;-85
2023/10/14 13:04:49;;;;;;;2.75;1.15;;;;;;;17.77;32.45;100963.03;5042289;28;20063;-84
2023/10/14 13:07:17;;;;;;;4.10;1.38;;;;;;;17.77;32.36;100956.63;5034393;28;20456;-85
2023/10/14 13:09:47;;;;;;;2.78;0.88;;;;;;;17.79;31.97;100962.00;5043837;28;20052;-85
2023/10/14 13:12:17;;;;;;;3.10;1.05;;;;;;;17.77;31.91;100973.25;5063568;28;20083;-86
2023/10/14 13:14:48;;;;;;;3.35;1.10;;;;;;;17.74;32.28;100971.69;5049784;28;20124;-86
2023/10/14 13:17:18;;;;;;;5.45;1.10;;;;;;;17.68;31.66;100969.59;5043226;28;20397;-84
2023/10/14 13:19:48;;;;;;;3.35;1.15;;;;;;;17.65;31.71;100977.38;5045855;28;20136;-85
2023/10/14 13:22:17;;;;;;;3.05;1.10;;;;;;;17.63;32.22;100980.34;5056204;28;20056;-85
2023/10/14 13:24:50;;;;;;;4.65;1.15;;;;;;;17.59;31.85;100981.72;5046956;28;20050;-84
2023/10/14 13:27:19;;;;;;;4.00;1.15;;;;;;;17.52;31.98;100982.63;5045917;28;20107;-84
2023/10/14 13:29:51;;;;;;;2.22;0.80;;;;;;;17.49;32.25;100980.19;5051588;28;20067;-85
2023/10/14 13:32:24;;;;;;;3.58;1.20;;;;;;;17.42;32.61;100981.94;5044398;28;20107;-86
2023/10/14 13:34:57;;;;;;;3.13;1.15;;;;;;;17.40;32.22;100982.97;5044127;28;20515;-86
2023/10/14 13:37:25;;;;;;;2.53;1.20;;;;;;;17.37;32.57;100980.59;5048436;28;20462;-84
2023/10/14 13:39:55;;;;;;;4.90;1.50;;;;;;;17.33;32.50;100986.63;5044860;28;20060;-85
2023/10/14 13:42:23;;;;;;;5.47;1.25;;;;;;;17.28;32.66;100981.63;5049150;28;20044;-86
2023/10/14 13:44:52;;;;;;;2.95;1.10;;;;;;;17.28;32.60;100978.00;5045606;28;20037;-85
2023/10/14 13:47:20;;;;;;;4.90;1.50;;;;;;;17.25;32.70;100981.09;5049645;28;20144;-86
2023/10/14 13:49:48;;;;;;;3.90;1.40;;;;;;;17.22;32.60;100979.59;5040956;28;20058;-86
2023/10/14 13:52:17;;;;;;;3.70;1.20;;;;;;;17.19;32.52;100974.38;5049226;28;20078;-85
2023/10/14 13:54:46;;;;;;;5.25;1.40;;;;;;;17.20;32.19;100978.88;5044237;28;20606;-86
2023/10/14 13:57:17;;;;;;;4.00;1.20;;;;;;;17.20;32.03;100983.56;5044043;28;20102;-86
2023/10/14 13:59:48;;;;;;;4.88;0.98;;;;;;;17.16;32.44;100984.91;5047597;28;20528;-85
2023/10/14 14:02:20;;;;;;;4.20;1.20;;;;;;;17.13;32.05;100996.34;5057188;28;20128;-86
2023/10/14 14:04:49;;;;;;;4.55;1.13;;;;;;;17.12;32.77;101000.16;5049779;28;20135;-86